Time;durP1;ratioP1;P1;durP2;ratioP2;P2;SDS_P1;SDS_P2;PMS_P1;PMS_P2;Temp;Humidity;BMP_temperature;BMP_pressure;BME280_temperature;BME280_humidity;BME280_pressure;Samples;Min_cycle;Max_cycle;Signal;HPM_P1;HPM_P2
2022/05/16 00:02:02;;;;;;;9.25;7.35;;;;;;;;;;10328155;28;20278;-75
2022/05/16 00:07:02;;;;;;;10.10;7.60;;;;;;;;;;10328759;28;20042;-76
2022/05/16 00:12:03;;;;;;;7.70;6.82;;;;;;;;;;10345576;28;20524;-77
2022/05/16 00:17:04;;;;;;;10.52;7.72;;;;;;;;;;10334509;28;20050;-75
2022/05/16 00:22:05;;;;;;;7.10;6.35;;;;;;;;;;10342315;28;20042;-76
2022/05/16 00:27:06;;;;;;;8.85;7.32;;;;;;;;;;10342892;28;20034;-77
2022/05/16 00:32:07;;;;;;;8.40;6.70;;;;;;;;;;10315797;28;20050;-76
2022/05/16 00:37:07;;;;;;;9.10;7.70;;;;;;;;;;10319175;28;20046;-77
2022/05/16 00:42:11;;;;;;;7.87;7.03;;;;;;;;;;10318850;28;20506;-77
2022/05/16 00:47:11;;;;;;;7.95;7.15;;;;;;;;;;10318273;28;20047;-78
2022/05/16 00:52:35;;;;;;;9.02;7.68;;;;;;;;;;10358325;28;20113;-77
2022/05/16 00:57:38;;;;;;;8.15;7.00;;;;;;;;;;10278717;28;20069;-77
2022/05/16 01:07:59;;;;;;;8.05;7.05;;;;;;;;;;10295228;28;20345;-77
2022/05/16 01:13:01;;;;;;;8.88;7.25;;;;;;;;;;10294578;28;20134;-77
2022/05/16 01:18:02;;;;;;;8.15;6.55;;;;;;;;;;10301800;28;20039;-77
2022/05/16 01:23:03;;;;;;;10.95;7.70;;;;;;;;;;10331236;28;20059;-77
2022/05/16 01:28:04;;;;;;;10.45;7.63;;;;;;;;;;10314085;28;20134;-75
2022/05/16 01:33:04;;;;;;;8.88;7.10;;;;;;;;;;10311271;28;20050;-77
2022/05/16 01:38:26;;;;;;;9.00;7.55;;;;;;;;;;10271313;28;20193;-76
2022/05/16 01:43:29;;;;;;;9.27;7.95;;;;;;;;;;10294741;28;20047;-76
2022/05/16 01:48:32;;;;;;;10.18;7.78;;;;;;;;;;10295795;28;20070;-77
2022/05/16 01:53:33;;;;;;;8.43;7.13;;;;;;;;;;10300333;28;20477;-77
2022/05/16 01:58:33;;;;;;;8.53;7.20;;;;;;;;;;10325028;28;20038;-77
2022/05/16 02:03:36;;;;;;;10.57;7.75;;;;;;;;;;10300508;28;20270;-76
2022/05/16 02:08:37;;;;;;;7.88;7.18;;;;;;;;;;10332509;28;20030;-77
2022/05/16 02:13:38;;;;;;;7.93;7.00;;;;;;;;;;10316638;28;20470;-77
2022/05/16 02:18:38;;;;;;;9.38;7.68;;;;;;;;;;10335940;28;20113;-77
2022/05/16 02:28:59;;;;;;;8.15;7.15;;;;;;;;;;10353804;28;20098;-76
2022/05/16 02:33:59;;;;;;;8.32;7.53;;;;;;;;;;10342243;28;20078;-76
2022/05/16 02:39:00;;;;;;;9.35;7.28;;;;;;;;;;10333827;28;20098;-78
2022/05/16 02:44:00;;;;;;;7.70;6.90;;;;;;;;;;10316480;28;20039;-78
2022/05/16 02:49:00;;;;;;;8.43;7.20;;;;;;;;;;10345910;28;20049;-76
2022/05/16 02:54:01;;;;;;;9.87;8.27;;;;;;;;;;10345533;28;20478;-76
2022/05/16 02:59:02;;;;;;;9.95;7.88;;;;;;;;;;10332044;28;20045;-74
2022/05/16 03:04:03;;;;;;;8.63;7.25;;;;;;;;;;10331601;28;20129;-76
2022/05/16 03:09:03;;;;;;;9.55;6.88;;;;;;;;;;10315920;28;20130;-77
2022/05/16 03:14:04;;;;;;;8.30;7.30;;;;;;;;;;10336972;28;20125;-76
2022/05/16 03:19:06;;;;;;;9.45;8.25;;;;;;;;;;10338941;28;20077;-76
2022/05/16 03:24:08;;;;;;;9.35;7.75;;;;;;;;;;10321492;28;20046;-76
2022/05/16 03:29:11;;;;;;;9.20;7.18;;;;;;;;;;10334512;28;20058;-77
2022/05/16 03:34:12;;;;;;;7.57;6.32;;;;;;;;;;10316102;28;20030;-75
2022/05/16 03:44:32;;;;;;;11.00;8.32;;;;;;;;;;10338783;28;20041;-75
2022/05/16 03:49:33;;;;;;;9.80;7.78;;;;;;;;;;10340118;28;20049;-77
2022/05/16 03:54:33;;;;;;;10.40;7.27;;;;;;;;;;10334076;28;20042;-76
2022/05/16 03:59:33;;;;;;;11.03;7.53;;;;;;;;;;10348063;28;20038;-75
2022/05/16 04:04:34;;;;;;;8.73;7.13;;;;;;;;;;10348946;28;20305;-76
2022/05/16 04:09:35;;;;;;;9.73;7.32;;;;;;;;;;10357540;28;20332;-75
2022/05/16 04:14:35;;;;;;;9.98;7.90;;;;;;;;;;10323680;28;20034;-78
2022/05/16 04:19:36;;;;;;;13.90;7.77;;;;;;;;;;10326143;28;20038;-78
2022/05/16 04:24:36;;;;;;;8.75;7.65;;;;;;;;;;10342553;28;20741;-78
2022/05/16 04:29:36;;;;;;;9.63;8.50;;;;;;;;;;10322935;28;20050;-77
2022/05/16 04:34:37;;;;;;;11.80;7.35;;;;;;;;;;10339627;28;20304;-76
2022/05/16 04:39:37;;;;;;;9.40;7.72;;;;;;;;;;10321285;28;20038;-76
2022/05/16 04:44:38;;;;;;;10.15;7.85;;;;;;;;;;10322791;28;20041;-75
2022/05/16 04:49:40;;;;;;;12.63;8.15;;;;;;;;;;10344880;28;20054;-76
2022/05/16 04:54:41;;;;;;;10.15;8.18;;;;;;;;;;10349683;28;20042;-75
2022/05/16 04:59:41;;;;;;;8.98;8.02;;;;;;;;;;10360698;28;20042;-77
2022/05/16 05:04:42;;;;;;;10.80;8.33;;;;;;;;;;10361271;28;20035;-75
2022/05/16 05:15:02;;;;;;;11.10;8.15;;;;;;;;;;10335054;28;20466;-76
2022/05/16 05:20:03;;;;;;;10.60;7.65;;;;;;;;;;10317199;28;20038;-78
2022/05/16 05:25:03;;;;;;;10.65;7.03;;;;;;;;;;10300867;28;20074;-76
2022/05/16 05:30:05;;;;;;;8.77;7.07;;;;;;;;;;10329895;28;20378;-77
2022/05/16 05:35:06;;;;;;;8.05;6.68;;;;;;;;;;10333799;28;20100;-76
2022/05/16 05:40:09;;;;;;;8.37;6.17;;;;;;;;;;10335465;28;20042;-76
2022/05/16 05:45:09;;;;;;;8.30;6.32;;;;;;;;;;10316967;28;20138;-74
2022/05/16 05:50:10;;;;;;;7.30;5.20;;;;;;;;;;10358581;28;20054;-75
2022/05/16 05:55:11;;;;;;;6.28;4.72;;;;;;;;;;10338334;28;20046;-75
2022/05/16 06:00:12;;;;;;;7.03;4.95;;;;;;;;;;10342850;28;20076;-77
2022/05/16 06:05:21;;;;;;;6.65;5.10;;;;;;;;;;10360337;28;20049;-75
2022/05/16 06:10:21;;;;;;;8.40;5.57;;;;;;;;;;10353765;28;20054;-77
2022/05/16 06:15:22;;;;;;;6.27;5.50;;;;;;;;;;10333724;28;20054;-76
2022/05/16 06:20:24;;;;;;;6.45;5.43;;;;;;;;;;10335904;28;20280;-76
2022/05/16 06:25:39;;;;;;;7.27;5.47;;;;;;;;;;10325914;28;20536;-77
2022/05/16 06:30:41;;;;;;;8.02;5.53;;;;;;;;;;10341832;28;20042;-76
2022/05/16 06:35:42;;;;;;;7.17;5.57;;;;;;;;;;10330998;28;20042;-75
2022/05/16 06:40:44;;;;;;;6.07;5.47;;;;;;;;;;10331076;28;20390;-76
2022/05/16 06:45:44;;;;;;;10.13;6.10;;;;;;;;;;10315147;28;20034;-76
2022/05/16 06:50:45;;;;;;;7.37;5.13;;;;;;;;;;10324422;28;20069;-77
2022/05/16 06:55:46;;;;;;;9.07;5.75;;;;;;;;;;10321146;28;20053;-76
2022/05/16 07:00:46;;;;;;;5.10;4.60;;;;;;;;;;10325034;28;20043;-76
2022/05/16 07:05:47;;;;;;;9.40;5.32;;;;;;;;;;10332968;28;20037;-77
2022/05/16 07:10:49;;;;;;;14.75;6.13;;;;;;;;;;10318245;28;20049;-75
2022/05/16 07:15:49;;;;;;;8.65;6.10;;;;;;;;;;10324137;28;20074;-78
2022/05/16 07:20:50;;;;;;;7.28;5.15;;;;;;;;;;10323523;28;20081;-76
2022/05/16 07:31:10;;;;;;;7.13;5.25;;;;;;;;;;10349688;28;20058;-77
2022/05/16 07:36:10;;;;;;;7.97;5.57;;;;;;;;;;10341793;28;20046;-78
2022/05/16 07:41:11;;;;;;;7.68;4.38;;;;;;;;;;10324019;28;20050;-78
2022/05/16 07:46:11;;;;;;;6.37;4.60;;;;;;;;;;10340744;28;20089;-77
2022/05/16 07:51:11;;;;;;;5.73;4.40;;;;;;;;;;10323091;28;20153;-76
2022/05/16 07:56:12;;;;;;;5.60;4.18;;;;;;;;;;10337411;28;20114;-71
2022/05/16 08:01:12;;;;;;;6.20;4.00;;;;;;;;;;10336607;28;20429;-72
2022/05/16 08:06:13;;;;;;;4.72;3.78;;;;;;;;;;10336279;28;20130;-75
2022/05/16 08:11:14;;;;;;;4.30;3.83;;;;;;;;;;10336566;28;20108;-72
2022/05/16 08:16:14;;;;;;;7.30;4.35;;;;;;;;;;10336184;28;20054;-71
2022/05/16 08:21:15;;;;;;;14.00;10.63;;;;;;;;;;10336295;28;20038;-76
2022/05/16 08:26:15;;;;;;;8.02;4.55;;;;;;;;;;10338047;28;20034;-77
2022/05/16 08:31:15;;;;;;;6.37;3.97;;;;;;;;;;10321313;28;20141;-78
2022/05/16 08:41:59;;;;;;;5.78;3.40;;;;;;;;;;10361476;28;20280;-77
2022/05/16 08:47:08;;;;;;;8.73;3.80;;;;;;;;;;10347256;28;20109;-78
2022/05/16 08:52:11;;;;;;;5.10;3.75;;;;;;;;;;10320019;28;20133;-77
2022/05/16 08:57:20;;;;;;;5.43;3.78;;;;;;;;;;10339845;28;20054;-77
2022/05/16 09:02:21;;;;;;;5.20;3.75;;;;;;;;;;10346893;28;20429;-77
2022/05/16 09:07:37;;;;;;;5.93;4.70;;;;;;;;;;10358970;28;20038;-77
2022/05/16 09:12:40;;;;;;;7.85;4.13;;;;;;;;;;10359326;28;20046;-76
2022/05/16 09:17:59;;;;;;;5.13;4.20;;;;;;;;;;10345230;28;20296;-78
2022/05/16 09:22:59;;;;;;;6.15;4.03;;;;;;;;;;10339751;28;20048;-77
2022/05/16 09:33:20;;;;;;;5.32;4.03;;;;;;;;;;10339605;28;20397;-78
2022/05/16 09:38:22;;;;;;;4.80;3.80;;;;;;;;;;10339455;28;20349;-78
2022/05/16 09:43:23;;;;;;;4.97;3.67;;;;;;;;;;10323429;28;20108;-77
2022/05/16 09:48:23;;;;;;;7.70;6.72;;;;;;;;;;10330827;28;20046;-79
2022/05/16 09:53:28;;;;;;;4.60;3.60;;;;;;;;;;10324349;28;20054;-76
2022/05/16 09:58:33;;;;;;;4.80;3.40;;;;;;;;;;10340149;28;20042;-75
2022/05/16 10:03:42;;;;;;;4.68;4.18;;;;;;;;;;10340403;28;20121;-74
2022/05/16 10:08:46;;;;;;;5.47;3.90;;;;;;;;;;10339377;28;20474;-74
2022/05/16 10:13:47;;;;;;;4.20;3.80;;;;;;;;;;10338029;28;20053;-75
2022/05/16 10:18:50;;;;;;;4.80;3.50;;;;;;;;;;10338566;28;20094;-76
2022/05/16 10:23:51;;;;;;;4.43;3.90;;;;;;;;;;10338608;28;20042;-77
2022/05/16 10:28:54;;;;;;;7.78;4.15;;;;;;;;;;10320042;28;20038;-78
2022/05/16 10:33:59;;;;;;;6.15;4.63;;;;;;;;;;10303277;28;20042;-74
2022/05/16 10:39:02;;;;;;;5.28;3.78;;;;;;;;;;10333207;28;20110;-75
2022/05/16 10:44:10;;;;;;;4.10;3.72;;;;;;;;;;10335480;28;20386;-77
2022/05/16 10:49:12;;;;;;;7.35;4.97;;;;;;;;;;10345456;28;20065;-76
2022/05/16 10:54:15;;;;;;;4.65;4.07;;;;;;;;;;10362161;28;20101;-77
2022/05/16 10:59:23;;;;;;;4.97;4.15;;;;;;;;;;10340587;28;20381;-77
2022/05/16 11:04:38;;;;;;;4.65;4.00;;;;;;;;;;10346680;28;20101;-77
2022/05/16 11:09:50;;;;;;;5.15;3.83;;;;;;;;;;10325932;28;20104;-78
2022/05/16 11:14:57;;;;;;;4.63;4.10;;;;;;;;;;10345683;28;20061;-79
2022/05/16 11:20:04;;;;;;;7.18;4.10;;;;;;;;;;10346520;28;20041;-78
2022/05/16 11:25:23;;;;;;;6.32;4.82;;;;;;;;;;10320997;28;20050;-79
2022/05/16 11:30:43;;;;;;;5.38;4.32;;;;;;;;;;10343701;28;20065;-77
2022/05/16 11:35:45;;;;;;;4.43;4.03;;;;;;;;;;10349931;28;20553;-78
2022/05/16 11:40:46;;;;;;;;;;;;;;;;;;10326388;28;20547;-77
2022/05/16 11:46:05;;;;;;;8.60;4.10;;;;;;;;;;10340825;28;19952;-76
2022/05/16 11:51:05;;;;;;;4.25;3.83;;;;;;;;;;10343726;28;20050;-79
2022/05/16 12:01:28;;;;;;;8.40;4.10;;;;;;;;;;10354872;28;20073;-78
2022/05/16 12:06:35;;;;;;;6.30;3.85;;;;;;;;;;10330766;28;20041;-80
2022/05/16 12:11:47;;;;;;;5.32;3.70;;;;;;;;;;10314307;28;20051;-78
2022/05/16 12:16:56;;;;;;;7.93;4.45;;;;;;;;;;10331223;28;20092;-78
2022/05/16 12:22:02;;;;;;;5.38;4.30;;;;;;;;;;10347847;28;20050;-78
2022/05/16 12:27:07;;;;;;;7.70;3.85;;;;;;;;;;10315812;28;20084;-78
2022/05/16 12:32:08;;;;;;;6.07;3.53;;;;;;;;;;10351459;28;20050;-79
2022/05/16 12:37:11;;;;;;;8.52;3.92;;;;;;;;;;10350941;28;20106;-79
2022/05/16 12:42:20;;;;;;;5.55;4.15;;;;;;;;;;10355969;28;20057;-79
2022/05/16 12:47:30;;;;;;;5.55;3.38;;;;;;;;;;10327278;28;20117;-77
2022/05/16 12:52:44;;;;;;;5.30;3.72;;;;;;;;;;10351994;28;20085;-81
2022/05/16 12:58:07;;;;;;;4.10;3.70;;;;;;;;;;10358125;28;20053;-79
2022/05/16 13:04:03;;;;;;;4.22;3.63;;;;;;;;;;10359398;28;20106;-79
2022/05/16 13:09:09;;;;;;;6.13;3.95;;;;;;;;;;10321990;28;20069;-80
2022/05/16 13:14:12;;;;;;;5.82;4.30;;;;;;;;;;10342408;28;20054;-81
2022/05/16 13:19:17;;;;;;;5.60;3.85;;;;;;;;;;10316915;28;20064;-84
2022/05/16 13:24:21;;;;;;;5.10;4.28;;;;;;;;;;10341220;28;20045;-75
2022/05/16 13:29:23;;;;;;;6.72;4.43;;;;;;;;;;10338580;28;20046;-78
2022/05/16 13:34:42;;;;;;;7.18;4.30;;;;;;;;;;10500679;27;20408;-77
2022/05/16 13:39:43;;;;;;;6.07;4.65;;;;;;;;;;10499830;28;20041;-78
2022/05/16 13:44:51;;;;;;;8.17;5.33;;;;;;;;;;10487156;28;20025;-77
2022/05/16 13:49:51;;;;;;;8.93;5.40;;;;;;;;;;10500794;28;20051;-78
2022/05/16 13:54:54;;;;;;;11.90;6.80;;;;;;;;;;10511299;28;20029;-79
2022/05/16 14:00:12;;;;;;;10.90;6.82;;;;;;;;;;10537726;28;20033;-80
2022/05/16 14:05:30;;;;;;;11.80;6.60;;;;;;;;;;10498964;28;20033;-77
2022/05/16 14:10:33;;;;;;;9.02;6.93;;;;;;;;;;10491291;28;20044;-77
2022/05/16 14:15:37;;;;;;;13.33;8.63;;;;;;;;;;10490179;28;20032;-77
2022/05/16 14:20:40;;;;;;;15.57;9.48;;;;;;;;;;10489585;28;20471;-76
2022/05/16 14:25:42;;;;;;;18.98;10.52;;;;;;;;;;10498097;28;20068;-79
2022/05/16 14:30:50;;;;;;;21.60;10.77;;;;;;;;;;10511039;28;20051;-82
2022/05/16 14:35:54;;;;;;;12.23;8.50;;;;;;;;;;10498911;28;20267;-81
2022/05/16 14:41:03;;;;;;;15.20;9.52;;;;;;;;;;10500775;28;20464;-81
2022/05/16 14:51:30;;;;;;;9.43;7.40;;;;;;;;;;10480759;28;20048;-79
2022/05/16 14:56:31;;;;;;;;;;;;;;;;;;10477761;28;20035;-80
2022/05/16 15:06:50;;;;;;;11.82;9.23;;;;;;;;;;10490301;28;20036;-81
2022/05/16 15:11:52;;;;;;;13.90;9.82;;;;;;;;;;10457807;28;20124;-80
2022/05/16 15:16:53;;;;;;;14.98;10.40;;;;;;;;;;10496728;28;20060;-79
2022/05/16 15:21:58;;;;;;;11.55;7.93;;;;;;;;;;10492970;28;20060;-79
2022/05/16 15:26:59;;;;;;;14.38;8.48;;;;;;;;;;10477049;28;20108;-82
2022/05/16 15:31:59;;;;;;;9.93;6.90;;;;;;;;;;10489897;28;20040;-81
2022/05/16 15:37:04;;;;;;;7.93;6.23;;;;;;;;;;10498895;28;20063;-80
2022/05/16 15:42:10;;;;;;;7.13;6.25;;;;;;;;;;10492899;28;20056;-80
2022/05/16 15:47:17;;;;;;;9.30;7.38;;;;;;;;;;10511652;28;20064;-81
2022/05/16 15:52:24;;;;;;;8.20;6.22;;;;;;;;;;10492907;28;20045;-80
2022/05/16 15:57:27;;;;;;;9.55;7.97;;;;;;;;;;10469702;28;20029;-80
2022/05/16 16:02:28;;;;;;;8.60;5.65;;;;;;;;;;10481866;28;20112;-79
2022/05/16 16:12:50;;;;;;;12.27;6.20;;;;;;;;;;10470173;28;20045;-80
2022/05/16 16:17:53;;;;;;;8.13;5.23;;;;;;;;;;10480209;28;20033;-80
2022/05/16 16:22:55;;;;;;;7.70;5.93;;;;;;;;;;10451115;28;20048;-72
2022/05/16 16:27:56;;;;;;;6.77;5.33;;;;;;;;;;10455794;28;20044;-72
2022/05/16 16:32:56;;;;;;;9.95;7.13;;;;;;;;;;10456006;28;20048;-71
2022/05/16 16:38:00;;;;;;;9.13;5.47;;;;;;;;;;10440520;28;20045;-72
2022/05/16 16:43:00;;;;;;;5.45;3.90;;;;;;;;;;10454560;28;20041;-72
2022/05/16 16:48:02;;;;;;;4.60;2.30;;;;;;;;;;10455100;28;20037;-73
2022/05/16 16:58:23;;;;;;;3.83;2.22;;;;;;;;;;10454912;28;20100;-73
2022/05/16 17:03:23;;;;;;;2.97;2.30;;;;;;;;;;10453282;28;20140;-71
2022/05/16 17:08:24;;;;;;;3.65;2.03;;;;;;;;;;10453227;28;20033;-70
2022/05/16 17:13:28;;;;;;;4.90;1.60;;;;;;;;;;10452378;28;20476;-71
2022/05/16 17:18:29;;;;;;;5.05;2.65;;;;;;;;;;10457275;28;20033;-77
2022/05/16 17:23:31;;;;;;;3.63;2.22;;;;;;;;;;10466128;28;20033;-77
2022/05/16 17:28:32;;;;;;;2.33;1.77;;;;;;;;;;10468809;28;20099;-77
2022/05/16 17:33:34;;;;;;;2.17;1.60;;;;;;;;;;10472926;28;20052;-77
2022/05/16 17:38:35;;;;;;;1.73;1.60;;;;;;;;;;10484931;28;20164;-77
2022/05/16 17:43:36;;;;;;;2.43;1.83;;;;;;;;;;10493692;28;20093;-78
2022/05/16 17:48:36;;;;;;;4.13;1.80;;;;;;;;;;10481911;28;20033;-76
2022/05/16 17:53:36;;;;;;;3.30;1.80;;;;;;;;;;10477283;28;20268;-78
2022/05/16 17:58:37;;;;;;;3.08;1.88;;;;;;;;;;10474700;28;20102;-77
2022/05/16 18:03:37;;;;;;;4.20;2.80;;;;;;;;;;10468097;28;20037;-76
2022/05/16 18:08:39;;;;;;;3.50;2.45;;;;;;;;;;10487445;28;20036;-77
2022/05/16 18:13:39;;;;;;;5.43;3.33;;;;;;;;;;10467156;28;20472;-79
2022/05/16 18:18:40;;;;;;;3.42;2.10;;;;;;;;;;10445814;28;20028;-77
2022/05/16 18:23:41;;;;;;;3.67;2.33;;;;;;;;;;10489531;28;20033;-80
2022/05/16 18:28:41;;;;;;;3.67;2.10;;;;;;;;;;10474119;28;20043;-81
2022/05/16 18:33:42;;;;;;;3.63;2.42;;;;;;;;;;10468188;28;20041;-80
2022/05/16 18:38:43;;;;;;;3.58;2.10;;;;;;;;;;10459297;28;20021;-83
2022/05/16 18:54:23;;;;;;;3.45;2.40;;;;;;;;;;10468720;28;20045;-81
2022/05/16 18:59:23;;;;;;;4.65;2.30;;;;;;;;;;10456291;28;20106;-81
2022/05/16 19:04:24;;;;;;;3.20;2.60;;;;;;;;;;10485752;28;20036;-80
2022/05/16 19:09:39;;;;;;;5.50;2.80;;;;;;;;;;10476598;28;20033;-80
2022/05/16 19:14:45;;;;;;;4.28;2.90;;;;;;;;;;10484022;28;20036;-80
2022/05/16 19:19:49;;;;;;;3.83;2.50;;;;;;;;;;10470044;28;20052;-80
2022/05/16 19:25:09;;;;;;;4.25;2.80;;;;;;;;;;10463461;28;20048;-81
2022/05/16 19:35:33;;;;;;;4.13;2.95;;;;;;;;;;10461429;28;20124;-79
2022/05/16 19:40:34;;;;;;;5.65;3.92;;;;;;;;;;10471254;28;20053;-79
2022/05/16 19:45:35;;;;;;;5.57;3.50;;;;;;;;;;10453414;28;20086;-77
2022/05/16 19:50:35;;;;;;;8.65;3.75;;;;;;;;;;10485704;28;20037;-77
2022/05/16 19:55:36;;;;;;;5.67;3.20;;;;;;;;;;10488129;28;20028;-81
2022/05/16 20:00:44;;;;;;;4.57;3.72;;;;;;;;;;10479670;28;20056;-79
2022/05/16 20:05:52;;;;;;;4.43;3.03;;;;;;;;;;10475328;28;20037;-77
2022/05/16 20:10:53;;;;;;;7.28;4.43;;;;;;;;;;10478620;28;20041;-77
2022/05/16 20:15:53;;;;;;;6.28;3.97;;;;;;;;;;10489499;28;20036;-79
2022/05/16 20:20:55;;;;;;;5.85;4.53;;;;;;;;;;10479463;28;20052;-79
2022/05/16 20:32:06;;;;;;;5.40;3.70;;;;;;;;;;10475768;28;20048;-79
2022/05/16 20:37:14;;;;;;;6.40;3.47;;;;;;;;;;10452223;28;20033;-79
2022/05/16 20:42:19;;;;;;;6.15;3.85;;;;;;;;;;10463684;28;20055;-78
2022/05/16 20:47:20;;;;;;;4.90;3.90;;;;;;;;;;10481526;28;20040;-78
2022/05/16 20:52:25;;;;;;;4.43;3.55;;;;;;;;;;10449101;28;20445;-78
2022/05/16 20:57:25;;;;;;;5.70;4.18;;;;;;;;;;10471466;28;20033;-78
2022/05/16 21:02:26;;;;;;;6.28;4.13;;;;;;;;;;10469767;28;20071;-78
2022/05/16 21:07:27;;;;;;;6.43;4.45;;;;;;;;;;10449214;28;20040;-79
2022/05/16 21:12:28;;;;;;;6.28;4.53;;;;;;;;;;10472484;28;20457;-79
2022/05/16 21:17:29;;;;;;;5.80;4.68;;;;;;;;;;10468731;28;20043;-79
2022/05/16 21:22:29;;;;;;;6.63;4.47;;;;;;;;;;10465035;28;20044;-78
2022/05/16 21:27:35;;;;;;;6.32;4.85;;;;;;;;;;10485041;28;20275;-78
2022/05/16 21:32:39;;;;;;;6.85;4.80;;;;;;;;;;10481829;28;20391;-77
2022/05/16 21:37:40;;;;;;;7.60;5.43;;;;;;;;;;10482376;28;20032;-78
2022/05/16 21:42:41;;;;;;;5.38;4.60;;;;;;;;;;10468325;28;20112;-78
2022/05/16 21:47:43;;;;;;;6.07;4.73;;;;;;;;;;10473054;28;20033;-79
2022/05/16 21:52:43;;;;;;;6.10;4.25;;;;;;;;;;10454449;28;20053;-77
2022/05/16 21:57:46;;;;;;;;;;;;;;;;;;10491586;28;20032;-77
2022/05/16 22:02:47;;;;;;;7.15;4.53;;;;;;;;;;10500837;28;19935;-78
2022/05/16 22:07:50;;;;;;;7.13;5.03;;;;;;;;;;10488438;28;20083;-78
2022/05/16 22:12:52;;;;;;;6.77;4.33;;;;;;;;;;10452747;28;20094;-80
2022/05/16 22:17:52;;;;;;;6.25;4.43;;;;;;;;;;10494384;28;20342;-79
2022/05/16 22:22:54;;;;;;;7.32;4.53;;;;;;;;;;10503344;28;20044;-80
2022/05/16 22:27:57;;;;;;;5.50;4.78;;;;;;;;;;10484331;28;20071;-80
2022/05/16 22:33:01;;;;;;;8.95;6.10;;;;;;;;;;10498081;28;20075;-79
2022/05/16 22:38:05;;;;;;;8.07;5.03;;;;;;;;;;10362975;28;20038;-78
2022/05/16 22:43:06;;;;;;;7.60;5.93;;;;;;;;;;10471594;28;20037;-78
2022/05/16 22:48:17;;;;;;;7.18;5.13;;;;;;;;;;10474561;28;20049;-79
2022/05/16 22:53:18;;;;;;;8.13;5.95;;;;;;;;;;10474428;28;20084;-79
2022/05/16 22:58:22;;;;;;;7.95;5.80;;;;;;;;;;10482964;28;20047;-78
2022/05/16 23:03:33;;;;;;;11.60;6.90;;;;;;;;;;10471548;28;20045;-80
2022/05/16 23:08:34;;;;;;;8.73;6.38;;;;;;;;;;10449112;23;20152;-78
2022/05/16 23:13:36;;;;;;;11.02;8.07;;;;;;;;;;10420141;28;20079;-79
2022/05/16 23:18:50;;;;;;;10.65;7.60;;;;;;;;;;10431144;28;20040;-78
2022/05/16 23:23:53;;;;;;;11.93;8.82;;;;;;;;;;10431433;28;20065;-79
2022/05/16 23:28:53;;;;;;;12.50;8.63;;;;;;;;;;10423020;28;20034;-78
2022/05/16 23:33:57;;;;;;;10.88;7.40;;;;;;;;;;10425313;28;20045;-79
2022/05/16 23:39:00;;;;;;;9.73;7.95;;;;;;;;;;10454339;28;20029;-79
2022/05/16 23:44:01;;;;;;;10.52;8.07;;;;;;;;;;10432960;28;20061;-77
2022/05/16 23:49:02;;;;;;;8.20;7.03;;;;;;;;;;10444336;28;20034;-78
2022/05/16 23:54:06;;;;;;;11.63;7.35;;;;;;;;;;10443339;28;20063;-78
2022/05/16 23:59:10;;;;;;;9.13;7.63;;;;;;;;;;10466443;28;20048;-80
